sensor_id;sensor_type;location;lat;lon;timestamp;P1;durP1;ratioP1;P2;durP2;ratioP2
16963;SDS011;8598;50.508;10.436;2023-07-20T00:01:33;20.10;;;6.30;;
16963;SDS011;8598;50.508;10.436;2023-07-20T00:03:59;21.70;;;6.23;;
16963;SDS011;8598;50.508;10.436;2023-07-20T00:06:26;19.83;;;5.83;;
16963;SDS011;8598;50.508;10.436;2023-07-20T00:08:53;16.93;;;5.30;;
16963;SDS011;8598;50.508;10.436;2023-07-20T00:11:20;15.70;;;6.47;;
16963;SDS011;8598;50.508;10.436;2023-07-20T00:13:48;19.10;;;5.00;;
16963;SDS011;8598;50.508;10.436;2023-07-20T00:16:15;13.50;;;5.10;;
16963;SDS011;8598;50.508;10.436;2023-07-20T00:18:42;13.40;;;5.73;;
16963;SDS011;8598;50.508;10.436;2023-07-20T00:21:08;15.57;;;5.77;;
16963;SDS011;8598;50.508;10.436;2023-07-20T00:23:35;16.97;;;5.50;;
16963;SDS011;8598;50.508;10.436;2023-07-20T00:26:02;11.17;;;6.13;;
16963;SDS011;8598;50.508;10.436;2023-07-20T00:28:28;15.17;;;5.37;;
16963;SDS011;8598;50.508;10.436;2023-07-20T00:30:56;25.00;;;5.33;;
16963;SDS011;8598;50.508;10.436;2023-07-20T00:33:25;17.17;;;5.27;;
16963;SDS011;8598;50.508;10.436;2023-07-20T00:35:52;19.03;;;5.27;;
16963;SDS011;8598;50.508;10.436;2023-07-20T00:38:18;17.27;;;6.17;;
16963;SDS011;8598;50.508;10.436;2023-07-20T00:40:45;19.87;;;6.23;;
16963;SDS011;8598;50.508;10.436;2023-07-20T00:43:13;22.60;;;5.93;;
16963;SDS011;8598;50.508;10.436;2023-07-20T00:45:40;17.87;;;5.63;;
16963;SDS011;8598;50.508;10.436;2023-07-20T00:48:08;14.00;;;6.17;;
16963;SDS011;8598;50.508;10.436;2023-07-20T00:50:35;14.47;;;5.47;;
16963;SDS011;8598;50.508;10.436;2023-07-20T00:53:03;13.77;;;5.70;;
16963;SDS011;8598;50.508;10.436;2023-07-20T00:55:31;11.83;;;6.13;;
16963;SDS011;8598;50.508;10.436;2023-07-20T00:57:57;12.33;;;5.40;;
16963;SDS011;8598;50.508;10.436;2023-07-20T01:00:25;7.93;;;5.50;;
16963;SDS011;8598;50.508;10.436;2023-07-20T01:02:52;8.67;;;5.50;;
16963;SDS011;8598;50.508;10.436;2023-07-20T01:05:21;11.07;;;5.70;;
16963;SDS011;8598;50.508;10.436;2023-07-20T01:07:52;15.37;;;5.80;;
16963;SDS011;8598;50.508;10.436;2023-07-20T01:10:25;7.43;;;5.10;;
16963;SDS011;8598;50.508;10.436;2023-07-20T01:12:57;17.50;;;6.00;;
16963;SDS011;8598;50.508;10.436;2023-07-20T01:15:26;11.43;;;5.33;;
16963;SDS011;8598;50.508;10.436;2023-07-20T01:17:53;22.03;;;7.47;;
16963;SDS011;8598;50.508;10.436;2023-07-20T01:20:21;9.87;;;5.40;;
16963;SDS011;8598;50.508;10.436;2023-07-20T01:22:58;16.90;;;5.50;;
16963;SDS011;8598;50.508;10.436;2023-07-20T01:25:34;24.57;;;6.23;;
16963;SDS011;8598;50.508;10.436;2023-07-20T01:28:27;21.70;;;5.80;;
16963;SDS011;8598;50.508;10.436;2023-07-20T01:31:23;28.93;;;5.47;;
16963;SDS011;8598;50.508;10.436;2023-07-20T01:33:52;23.63;;;7.10;;
16963;SDS011;8598;50.508;10.436;2023-07-20T01:36:21;21.23;;;5.23;;
16963;SDS011;8598;50.508;10.436;2023-07-20T01:38:50;21.97;;;5.80;;
16963;SDS011;8598;50.508;10.436;2023-07-20T01:41:18;23.13;;;6.27;;
16963;SDS011;8598;50.508;10.436;2023-07-20T01:43:45;18.23;;;6.20;;
16963;SDS011;8598;50.508;10.436;2023-07-20T01:46:12;16.70;;;6.80;;
16963;SDS011;8598;50.508;10.436;2023-07-20T01:48:40;28.20;;;6.73;;
16963;SDS011;8598;50.508;10.436;2023-07-20T01:51:07;14.03;;;5.93;;
16963;SDS011;8598;50.508;10.436;2023-07-20T01:53:33;17.93;;;5.30;;
16963;SDS011;8598;50.508;10.436;2023-07-20T01:56:00;18.13;;;5.70;;
16963;SDS011;8598;50.508;10.436;2023-07-20T01:58:27;11.20;;;5.57;;
16963;SDS011;8598;50.508;10.436;2023-07-20T02:00:54;18.97;;;5.97;;
16963;SDS011;8598;50.508;10.436;2023-07-20T02:03:20;25.50;;;7.10;;
16963;SDS011;8598;50.508;10.436;2023-07-20T02:05:50;18.93;;;5.80;;
16963;SDS011;8598;50.508;10.436;2023-07-20T02:08:16;19.10;;;4.80;;
16963;SDS011;8598;50.508;10.436;2023-07-20T02:10:44;16.30;;;5.13;;
16963;SDS011;8598;50.508;10.436;2023-07-20T02:13:13;23.33;;;5.30;;
16963;SDS011;8598;50.508;10.436;2023-07-20T02:15:40;18.47;;;6.30;;
16963;SDS011;8598;50.508;10.436;2023-07-20T02:18:07;26.77;;;5.10;;
16963;SDS011;8598;50.508;10.436;2023-07-20T02:20:34;16.87;;;5.30;;
16963;SDS011;8598;50.508;10.436;2023-07-20T02:23:03;32.23;;;6.27;;
16963;SDS011;8598;50.508;10.436;2023-07-20T02:25:29;21.67;;;5.70;;
16963;SDS011;8598;50.508;10.436;2023-07-20T02:27:56;22.73;;;6.60;;
16963;SDS011;8598;50.508;10.436;2023-07-20T02:30:23;25.03;;;6.00;;
16963;SDS011;8598;50.508;10.436;2023-07-20T02:32:52;34.63;;;5.83;;
16963;SDS011;8598;50.508;10.436;2023-07-20T02:35:18;22.10;;;6.07;;
16963;SDS011;8598;50.508;10.436;2023-07-20T02:37:45;19.37;;;6.20;;
16963;SDS011;8598;50.508;10.436;2023-07-20T02:40:14;13.83;;;6.40;;
16963;SDS011;8598;50.508;10.436;2023-07-20T02:42:40;28.00;;;5.93;;
16963;SDS011;8598;50.508;10.436;2023-07-20T02:45:07;31.03;;;6.30;;
16963;SDS011;8598;50.508;10.436;2023-07-20T02:47:34;24.60;;;6.20;;
16963;SDS011;8598;50.508;10.436;2023-07-20T02:50:01;18.33;;;5.70;;
16963;SDS011;8598;50.508;10.436;2023-07-20T02:52:28;26.07;;;6.00;;
16963;SDS011;8598;50.508;10.436;2023-07-20T02:54:55;27.90;;;5.93;;
16963;SDS011;8598;50.508;10.436;2023-07-20T02:57:23;26.53;;;5.83;;
16963;SDS011;8598;50.508;10.436;2023-07-20T02:59:50;23.77;;;5.07;;
16963;SDS011;8598;50.508;10.436;2023-07-20T03:02:16;17.17;;;6.27;;
16963;SDS011;8598;50.508;10.436;2023-07-20T03:04:43;12.17;;;5.00;;
16963;SDS011;8598;50.508;10.436;2023-07-20T03:07:10;15.27;;;6.37;;
16963;SDS011;8598;50.508;10.436;2023-07-20T03:09:37;25.67;;;6.47;;
16963;SDS011;8598;50.508;10.436;2023-07-20T03:12:04;21.00;;;5.87;;
16963;SDS011;8598;50.508;10.436;2023-07-20T03:14:33;29.37;;;6.73;;
16963;SDS011;8598;50.508;10.436;2023-07-20T03:17:00;23.63;;;6.53;;
16963;SDS011;8598;50.508;10.436;2023-07-20T03:19:27;22.30;;;6.87;;
16963;SDS011;8598;50.508;10.436;2023-07-20T03:21:54;28.03;;;7.73;;
16963;SDS011;8598;50.508;10.436;2023-07-20T03:24:20;17.87;;;6.67;;
16963;SDS011;8598;50.508;10.436;2023-07-20T03:26:48;17.10;;;6.93;;
16963;SDS011;8598;50.508;10.436;2023-07-20T03:29:15;17.77;;;7.03;;
16963;SDS011;8598;50.508;10.436;2023-07-20T03:31:43;19.73;;;6.50;;
16963;SDS011;8598;50.508;10.436;2023-07-20T03:34:10;23.00;;;6.80;;
16963;SDS011;8598;50.508;10.436;2023-07-20T03:36:36;26.13;;;6.73;;
16963;SDS011;8598;50.508;10.436;2023-07-20T03:39:03;27.47;;;7.63;;
16963;SDS011;8598;50.508;10.436;2023-07-20T03:41:30;16.03;;;6.80;;
16963;SDS011;8598;50.508;10.436;2023-07-20T03:43:56;16.43;;;7.63;;
16963;SDS011;8598;50.508;10.436;2023-07-20T03:46:23;10.40;;;7.63;;
16963;SDS011;8598;50.508;10.436;2023-07-20T03:48:51;25.87;;;7.57;;
16963;SDS011;8598;50.508;10.436;2023-07-20T03:51:18;26.60;;;7.60;;
16963;SDS011;8598;50.508;10.436;2023-07-20T03:53:45;33.77;;;7.90;;
16963;SDS011;8598;50.508;10.436;2023-07-20T03:56:11;48.40;;;8.77;;
16963;SDS011;8598;50.508;10.436;2023-07-20T03:58:38;39.47;;;8.03;;
16963;SDS011;8598;50.508;10.436;2023-07-20T04:01:05;38.70;;;8.13;;
16963;SDS011;8598;50.508;10.436;2023-07-20T04:03:33;32.47;;;8.33;;
16963;SDS011;8598;50.508;10.436;2023-07-20T04:06:02;34.57;;;7.90;;
16963;SDS011;8598;50.508;10.436;2023-07-20T04:08:28;38.33;;;7.97;;
16963;SDS011;8598;50.508;10.436;2023-07-20T04:10:55;68.67;;;8.13;;
16963;SDS011;8598;50.508;10.436;2023-07-20T04:13:22;33.37;;;7.80;;
16963;SDS011;8598;50.508;10.436;2023-07-20T04:15:48;41.97;;;7.57;;
16963;SDS011;8598;50.508;10.436;2023-07-20T04:18:15;40.63;;;8.70;;
16963;SDS011;8598;50.508;10.436;2023-07-20T04:20:42;22.63;;;7.23;;
16963;SDS011;8598;50.508;10.436;2023-07-20T04:23:10;20.77;;;7.80;;
16963;SDS011;8598;50.508;10.436;2023-07-20T04:25:38;49.87;;;9.47;;
16963;SDS011;8598;50.508;10.436;2023-07-20T04:28:06;20.80;;;7.40;;
16963;SDS011;8598;50.508;10.436;2023-07-20T04:30:34;15.43;;;6.73;;
16963;SDS011;8598;50.508;10.436;2023-07-20T04:33:02;22.03;;;6.13;;
16963;SDS011;8598;50.508;10.436;2023-07-20T04:35:44;16.03;;;7.00;;
16963;SDS011;8598;50.508;10.436;2023-07-20T04:38:14;33.43;;;6.70;;
16963;SDS011;8598;50.508;10.436;2023-07-20T04:40:42;47.07;;;7.93;;
16963;SDS011;8598;50.508;10.436;2023-07-20T04:43:09;27.87;;;7.83;;
16963;SDS011;8598;50.508;10.436;2023-07-20T04:45:36;42.47;;;6.60;;
16963;SDS011;8598;50.508;10.436;2023-07-20T04:48:04;18.60;;;5.77;;
16963;SDS011;8598;50.508;10.436;2023-07-20T04:50:32;16.60;;;5.43;;
16963;SDS011;8598;50.508;10.436;2023-07-20T04:52:59;20.70;;;5.13;;
16963;SDS011;8598;50.508;10.436;2023-07-20T04:55:28;13.50;;;5.70;;
16963;SDS011;8598;50.508;10.436;2023-07-20T04:57:55;21.33;;;6.40;;
16963;SDS011;8598;50.508;10.436;2023-07-20T05:00:21;19.87;;;5.63;;
16963;SDS011;8598;50.508;10.436;2023-07-20T05:02:48;15.00;;;5.17;;
16963;SDS011;8598;50.508;10.436;2023-07-20T05:05:15;16.30;;;4.83;;
16963;SDS011;8598;50.508;10.436;2023-07-20T05:07:42;10.17;;;4.77;;
16963;SDS011;8598;50.508;10.436;2023-07-20T05:10:09;11.73;;;4.67;;
16963;SDS011;8598;50.508;10.436;2023-07-20T05:12:37;13.60;;;4.53;;
16963;SDS011;8598;50.508;10.436;2023-07-20T05:15:04;13.87;;;3.87;;
16963;SDS011;8598;50.508;10.436;2023-07-20T05:17:31;16.87;;;5.33;;
16963;SDS011;8598;50.508;10.436;2023-07-20T05:19:57;9.53;;;3.23;;
16963;SDS011;8598;50.508;10.436;2023-07-20T05:22:24;10.80;;;3.33;;
16963;SDS011;8598;50.508;10.436;2023-07-20T05:24:51;10.67;;;2.80;;
16963;SDS011;8598;50.508;10.436;2023-07-20T05:27:18;7.33;;;1.90;;
16963;SDS011;8598;50.508;10.436;2023-07-20T05:29:46;12.77;;;2.77;;
16963;SDS011;8598;50.508;10.436;2023-07-20T05:32:12;10.03;;;2.27;;
16963;SDS011;8598;50.508;10.436;2023-07-20T05:34:39;10.83;;;2.77;;
16963;SDS011;8598;50.508;10.436;2023-07-20T05:37:06;9.53;;;2.40;;
16963;SDS011;8598;50.508;10.436;2023-07-20T05:39:33;13.13;;;2.73;;
16963;SDS011;8598;50.508;10.436;2023-07-20T05:42:00;14.27;;;2.67;;
16963;SDS011;8598;50.508;10.436;2023-07-20T05:44:26;9.20;;;2.63;;
16963;SDS011;8598;50.508;10.436;2023-07-20T05:46:54;8.00;;;3.10;;
16963;SDS011;8598;50.508;10.436;2023-07-20T05:49:21;8.40;;;3.37;;
16963;SDS011;8598;50.508;10.436;2023-07-20T05:51:48;10.77;;;3.13;;
16963;SDS011;8598;50.508;10.436;2023-07-20T05:54:15;10.97;;;3.80;;
16963;SDS011;8598;50.508;10.436;2023-07-20T05:56:41;10.27;;;3.77;;
16963;SDS011;8598;50.508;10.436;2023-07-20T05:59:08;7.33;;;3.30;;
16963;SDS011;8598;50.508;10.436;2023-07-20T06:01:35;6.07;;;2.97;;
16963;SDS011;8598;50.508;10.436;2023-07-20T06:04:03;8.40;;;3.57;;
16963;SDS011;8598;50.508;10.436;2023-07-20T06:06:29;5.57;;;3.40;;
16963;SDS011;8598;50.508;10.436;2023-07-20T06:08:56;9.10;;;3.23;;
16963;SDS011;8598;50.508;10.436;2023-07-20T06:11:23;4.97;;;2.87;;
16963;SDS011;8598;50.508;10.436;2023-07-20T06:13:50;5.17;;;3.13;;
16963;SDS011;8598;50.508;10.436;2023-07-20T06:16:16;4.83;;;2.37;;
16963;SDS011;8598;50.508;10.436;2023-07-20T06:18:43;7.37;;;2.63;;
16963;SDS011;8598;50.508;10.436;2023-07-20T06:21:11;8.03;;;2.50;;
16963;SDS011;8598;50.508;10.436;2023-07-20T06:23:38;7.60;;;2.80;;
16963;SDS011;8598;50.508;10.436;2023-07-20T06:26:05;8.40;;;3.20;;
16963;SDS011;8598;50.508;10.436;2023-07-20T06:28:32;7.87;;;3.47;;
16963;SDS011;8598;50.508;10.436;2023-07-20T06:30:59;5.03;;;2.70;;
16963;SDS011;8598;50.508;10.436;2023-07-20T06:33:26;7.73;;;2.70;;
16963;SDS011;8598;50.508;10.436;2023-07-20T06:35:53;6.33;;;3.17;;
16963;SDS011;8598;50.508;10.436;2023-07-20T06:38:23;6.17;;;3.13;;
16963;SDS011;8598;50.508;10.436;2023-07-20T06:40:50;6.67;;;3.40;;
16963;SDS011;8598;50.508;10.436;2023-07-20T06:43:17;4.27;;;2.87;;
16963;SDS011;8598;50.508;10.436;2023-07-20T06:45:44;3.63;;;2.70;;
16963;SDS011;8598;50.508;10.436;2023-07-20T06:48:10;3.23;;;2.60;;
16963;SDS011;8598;50.508;10.436;2023-07-20T06:50:37;4.83;;;2.70;;
16963;SDS011;8598;50.508;10.436;2023-07-20T06:53:04;3.50;;;2.80;;
16963;SDS011;8598;50.508;10.436;2023-07-20T06:55:32;4.23;;;3.30;;
16963;SDS011;8598;50.508;10.436;2023-07-20T06:57:59;6.10;;;3.30;;
16963;SDS011;8598;50.508;10.436;2023-07-20T07:00:25;4.00;;;3.47;;
16963;SDS011;8598;50.508;10.436;2023-07-20T07:02:52;9.17;;;3.17;;
16963;SDS011;8598;50.508;10.436;2023-07-20T07:05:19;5.00;;;2.77;;
16963;SDS011;8598;50.508;10.436;2023-07-20T07:07:46;6.77;;;3.57;;
16963;SDS011;8598;50.508;10.436;2023-07-20T07:10:12;8.93;;;2.70;;
16963;SDS011;8598;50.508;10.436;2023-07-20T07:12:41;4.27;;;2.43;;
16963;SDS011;8598;50.508;10.436;2023-07-20T07:15:08;4.30;;;2.50;;
16963;SDS011;8598;50.508;10.436;2023-07-20T07:17:36;9.00;;;3.20;;
16963;SDS011;8598;50.508;10.436;2023-07-20T07:20:03;6.07;;;2.63;;
16963;SDS011;8598;50.508;10.436;2023-07-20T07:22:32;3.27;;;2.60;;
16963;SDS011;8598;50.508;10.436;2023-07-20T07:24:59;8.13;;;2.40;;
16963;SDS011;8598;50.508;10.436;2023-07-20T07:27:26;5.37;;;2.93;;
16963;SDS011;8598;50.508;10.436;2023-07-20T07:29:54;6.53;;;3.17;;
16963;SDS011;8598;50.508;10.436;2023-07-20T07:32:20;5.47;;;2.97;;
16963;SDS011;8598;50.508;10.436;2023-07-20T07:34:47;5.40;;;2.73;;
16963;SDS011;8598;50.508;10.436;2023-07-20T07:37:14;5.87;;;2.50;;
16963;SDS011;8598;50.508;10.436;2023-07-20T07:39:41;3.60;;;2.53;;
16963;SDS011;8598;50.508;10.436;2023-07-20T07:42:08;5.47;;;2.80;;
16963;SDS011;8598;50.508;10.436;2023-07-20T07:44:34;4.50;;;2.80;;
16963;SDS011;8598;50.508;10.436;2023-07-20T07:47:02;5.30;;;2.97;;
16963;SDS011;8598;50.508;10.436;2023-07-20T07:49:30;3.00;;;2.20;;
16963;SDS011;8598;50.508;10.436;2023-07-20T07:51:57;3.93;;;2.10;;
16963;SDS011;8598;50.508;10.436;2023-07-20T07:54:25;6.47;;;2.47;;
16963;SDS011;8598;50.508;10.436;2023-07-20T07:56:52;3.77;;;2.10;;
16963;SDS011;8598;50.508;10.436;2023-07-20T07:59:18;3.90;;;2.07;;
16963;SDS011;8598;50.508;10.436;2023-07-20T08:01:45;4.67;;;1.93;;
16963;SDS011;8598;50.508;10.436;2023-07-20T08:04:13;6.10;;;3.93;;
16963;SDS011;8598;50.508;10.436;2023-07-20T08:06:40;4.87;;;2.80;;
16963;SDS011;8598;50.508;10.436;2023-07-20T08:09:06;5.30;;;2.00;;
16963;SDS011;8598;50.508;10.436;2023-07-20T08:11:33;4.50;;;2.10;;
16963;SDS011;8598;50.508;10.436;2023-07-20T08:14:00;5.27;;;2.50;;
16963;SDS011;8598;50.508;10.436;2023-07-20T08:16:27;3.20;;;2.67;;
16963;SDS011;8598;50.508;10.436;2023-07-20T08:18:53;4.50;;;2.77;;
16963;SDS011;8598;50.508;10.436;2023-07-20T08:21:21;4.67;;;2.67;;
16963;SDS011;8598;50.508;10.436;2023-07-20T08:23:48;4.27;;;2.33;;
16963;SDS011;8598;50.508;10.436;2023-07-20T08:26:15;6.83;;;2.60;;
16963;SDS011;8598;50.508;10.436;2023-07-20T08:28:42;4.43;;;2.90;;
16963;SDS011;8598;50.508;10.436;2023-07-20T08:31:10;4.20;;;2.10;;
16963;SDS011;8598;50.508;10.436;2023-07-20T08:33:36;4.67;;;2.47;;
16963;SDS011;8598;50.508;10.436;2023-07-20T08:36:03;2.03;;;1.83;;
16963;SDS011;8598;50.508;10.436;2023-07-20T08:38:32;2.87;;;1.80;;
16963;SDS011;8598;50.508;10.436;2023-07-20T08:40:58;3.20;;;1.73;;
16963;SDS011;8598;50.508;10.436;2023-07-20T08:43:26;2.73;;;1.83;;
16963;SDS011;8598;50.508;10.436;2023-07-20T08:45:54;2.67;;;1.70;;
16963;SDS011;8598;50.508;10.436;2023-07-20T08:48:21;3.83;;;1.90;;
16963;SDS011;8598;50.508;10.436;2023-07-20T08:50:50;3.33;;;1.60;;
16963;SDS011;8598;50.508;10.436;2023-07-20T08:53:18;3.13;;;2.07;;
16963;SDS011;8598;50.508;10.436;2023-07-20T08:55:46;4.07;;;1.93;;
16963;SDS011;8598;50.508;10.436;2023-07-20T08:58:16;6.27;;;1.97;;
16963;SDS011;8598;50.508;10.436;2023-07-20T09:00:43;4.47;;;1.90;;
16963;SDS011;8598;50.508;10.436;2023-07-20T09:03:11;3.20;;;1.70;;
16963;SDS011;8598;50.508;10.436;2023-07-20T09:05:38;7.40;;;4.87;;
16963;SDS011;8598;50.508;10.436;2023-07-20T09:08:05;2.70;;;2.10;;
16963;SDS011;8598;50.508;10.436;2023-07-20T09:10:32;2.23;;;1.63;;
16963;SDS011;8598;50.508;10.436;2023-07-20T09:13:00;3.47;;;2.93;;
16963;SDS011;8598;50.508;10.436;2023-07-20T09:15:28;5.20;;;3.03;;
16963;SDS011;8598;50.508;10.436;2023-07-20T09:17:55;4.23;;;2.70;;
16963;SDS011;8598;50.508;10.436;2023-07-20T09:20:22;3.00;;;2.13;;
16963;SDS011;8598;50.508;10.436;2023-07-20T09:22:50;4.40;;;3.37;;
16963;SDS011;8598;50.508;10.436;2023-07-20T09:25:18;5.30;;;3.87;;
16963;SDS011;8598;50.508;10.436;2023-07-20T09:27:45;2.50;;;2.23;;
16963;SDS011;8598;50.508;10.436;2023-07-20T09:30:14;2.23;;;1.93;;
16963;SDS011;8598;50.508;10.436;2023-07-20T09:32:43;6.17;;;2.83;;
16963;SDS011;8598;50.508;10.436;2023-07-20T09:35:14;4.07;;;2.50;;
16963;SDS011;8598;50.508;10.436;2023-07-20T09:37:51;3.20;;;2.50;;
16963;SDS011;8598;50.508;10.436;2023-07-20T09:40:20;3.67;;;2.70;;
16963;SDS011;8598;50.508;10.436;2023-07-20T09:42:47;3.43;;;2.73;;
16963;SDS011;8598;50.508;10.436;2023-07-20T09:45:15;2.93;;;2.17;;
16963;SDS011;8598;50.508;10.436;2023-07-20T09:47:42;2.80;;;2.40;;
16963;SDS011;8598;50.508;10.436;2023-07-20T09:50:09;4.10;;;3.03;;
16963;SDS011;8598;50.508;10.436;2023-07-20T09:52:40;4.27;;;2.57;;
16963;SDS011;8598;50.508;10.436;2023-07-20T09:55:09;3.23;;;2.50;;
16963;SDS011;8598;50.508;10.436;2023-07-20T09:57:37;6.40;;;2.80;;
16963;SDS011;8598;50.508;10.436;2023-07-20T10:00:06;2.93;;;2.30;;
16963;SDS011;8598;50.508;10.436;2023-07-20T10:02:41;2.77;;;2.20;;
16963;SDS011;8598;50.508;10.436;2023-07-20T10:05:10;7.93;;;2.37;;
16963;SDS011;8598;50.508;10.436;2023-07-20T10:07:40;4.53;;;2.30;;
16963;SDS011;8598;50.508;10.436;2023-07-20T10:10:11;6.10;;;2.23;;
16963;SDS011;8598;50.508;10.436;2023-07-20T10:12:40;3.80;;;2.40;;
16963;SDS011;8598;50.508;10.436;2023-07-20T10:15:10;4.73;;;2.90;;
16963;SDS011;8598;50.508;10.436;2023-07-20T10:17:40;6.83;;;3.10;;
16963;SDS011;8598;50.508;10.436;2023-07-20T10:20:16;5.57;;;2.60;;
16963;SDS011;8598;50.508;10.436;2023-07-20T10:22:45;7.40;;;2.70;;
16963;SDS011;8598;50.508;10.436;2023-07-20T10:25:15;3.23;;;2.13;;
16963;SDS011;8598;50.508;10.436;2023-07-20T10:27:42;3.90;;;2.60;;
16963;SDS011;8598;50.508;10.436;2023-07-20T10:30:10;2.73;;;2.27;;
16963;SDS011;8598;50.508;10.436;2023-07-20T10:32:37;3.73;;;2.50;;
16963;SDS011;8598;50.508;10.436;2023-07-20T10:35:12;3.07;;;2.27;;
16963;SDS011;8598;50.508;10.436;2023-07-20T10:37:47;2.23;;;2.03;;
16963;SDS011;8598;50.508;10.436;2023-07-20T10:40:24;2.67;;;2.30;;
16963;SDS011;8598;50.508;10.436;2023-07-20T10:42:59;3.60;;;2.13;;
16963;SDS011;8598;50.508;10.436;2023-07-20T10:45:34;5.40;;;1.90;;
16963;SDS011;8598;50.508;10.436;2023-07-20T10:48:03;2.90;;;2.10;;
16963;SDS011;8598;50.508;10.436;2023-07-20T10:50:32;5.43;;;2.07;;
16963;SDS011;8598;50.508;10.436;2023-07-20T10:53:09;3.67;;;2.03;;
16963;SDS011;8598;50.508;10.436;2023-07-20T10:55:37;3.70;;;2.20;;
16963;SDS011;8598;50.508;10.436;2023-07-20T10:58:08;3.67;;;2.20;;
16963;SDS011;8598;50.508;10.436;2023-07-20T11:00:36;4.77;;;2.77;;
16963;SDS011;8598;50.508;10.436;2023-07-20T11:03:03;3.07;;;2.70;;
16963;SDS011;8598;50.508;10.436;2023-07-20T11:05:38;4.30;;;2.90;;
16963;SDS011;8598;50.508;10.436;2023-07-20T11:08:06;3.60;;;2.90;;
16963;SDS011;8598;50.508;10.436;2023-07-20T11:10:36;2.77;;;2.47;;
16963;SDS011;8598;50.508;10.436;2023-07-20T11:13:16;3.90;;;3.00;;
16963;SDS011;8598;50.508;10.436;2023-07-20T11:15:48;3.33;;;2.40;;
16963;SDS011;8598;50.508;10.436;2023-07-20T11:18:28;2.97;;;2.63;;
16963;SDS011;8598;50.508;10.436;2023-07-20T11:20:56;2.30;;;2.10;;
16963;SDS011;8598;50.508;10.436;2023-07-20T11:23:23;2.83;;;2.10;;
16963;SDS011;8598;50.508;10.436;2023-07-20T11:25:50;3.83;;;2.37;;
16963;SDS011;8598;50.508;10.436;2023-07-20T11:28:17;3.77;;;2.07;;
16963;SDS011;8598;50.508;10.436;2023-07-20T11:30:44;2.57;;;2.20;;
16963;SDS011;8598;50.508;10.436;2023-07-20T11:33:11;3.67;;;1.90;;
16963;SDS011;8598;50.508;10.436;2023-07-20T11:35:41;2.83;;;2.47;;
16963;SDS011;8598;50.508;10.436;2023-07-20T11:38:11;3.97;;;2.73;;
16963;SDS011;8598;50.508;10.436;2023-07-20T11:40:41;3.37;;;2.63;;
16963;SDS011;8598;50.508;10.436;2023-07-20T11:43:09;3.20;;;2.90;;
16963;SDS011;8598;50.508;10.436;2023-07-20T11:45:37;4.77;;;2.57;;
16963;SDS011;8598;50.508;10.436;2023-07-20T11:48:04;5.37;;;3.03;;
16963;SDS011;8598;50.508;10.436;2023-07-20T11:50:31;5.20;;;2.67;;
16963;SDS011;8598;50.508;10.436;2023-07-20T11:52:58;3.10;;;2.80;;
16963;SDS011;8598;50.508;10.436;2023-07-20T11:55:26;3.23;;;2.60;;
16963;SDS011;8598;50.508;10.436;2023-07-20T11:58:02;3.60;;;3.30;;
16963;SDS011;8598;50.508;10.436;2023-07-20T12:00:29;4.17;;;3.37;;
16963;SDS011;8598;50.508;10.436;2023-07-20T12:02:57;4.07;;;3.67;;
16963;SDS011;8598;50.508;10.436;2023-07-20T12:05:23;4.70;;;3.00;;
16963;SDS011;8598;50.508;10.436;2023-07-20T12:07:51;7.33;;;4.27;;
16963;SDS011;8598;50.508;10.436;2023-07-20T12:10:23;5.20;;;4.27;;
16963;SDS011;8598;50.508;10.436;2023-07-20T12:12:53;8.80;;;4.73;;
16963;SDS011;8598;50.508;10.436;2023-07-20T12:15:20;3.60;;;2.60;;
16963;SDS011;8598;50.508;10.436;2023-07-20T12:17:49;2.57;;;2.37;;
16963;SDS011;8598;50.508;10.436;2023-07-20T12:20:24;7.40;;;2.47;;
16963;SDS011;8598;50.508;10.436;2023-07-20T12:22:52;3.60;;;2.27;;
16963;SDS011;8598;50.508;10.436;2023-07-20T12:25:19;2.70;;;2.43;;
16963;SDS011;8598;50.508;10.436;2023-07-20T12:27:47;3.20;;;2.90;;
16963;SDS011;8598;50.508;10.436;2023-07-20T12:30:14;3.07;;;2.50;;
16963;SDS011;8598;50.508;10.436;2023-07-20T12:32:41;5.43;;;2.37;;
16963;SDS011;8598;50.508;10.436;2023-07-20T12:35:08;3.73;;;2.83;;
16963;SDS011;8598;50.508;10.436;2023-07-20T12:37:36;3.33;;;2.13;;
16963;SDS011;8598;50.508;10.436;2023-07-20T12:40:03;5.30;;;2.67;;
16963;SDS011;8598;50.508;10.436;2023-07-20T12:42:36;3.20;;;2.57;;
16963;SDS011;8598;50.508;10.436;2023-07-20T12:45:05;3.17;;;2.33;;
16963;SDS011;8598;50.508;10.436;2023-07-20T12:47:32;3.43;;;2.50;;
16963;SDS011;8598;50.508;10.436;2023-07-20T12:49:59;4.07;;;2.13;;
16963;SDS011;8598;50.508;10.436;2023-07-20T12:52:26;4.80;;;2.30;;
16963;SDS011;8598;50.508;10.436;2023-07-20T12:54:53;2.90;;;2.03;;
16963;SDS011;8598;50.508;10.436;2023-07-20T12:57:19;3.30;;;1.50;;
16963;SDS011;8598;50.508;10.436;2023-07-20T12:59:46;2.00;;;1.63;;
16963;SDS011;8598;50.508;10.436;2023-07-20T13:02:14;4.07;;;1.97;;
16963;SDS011;8598;50.508;10.436;2023-07-20T13:04:41;2.57;;;1.80;;
16963;SDS011;8598;50.508;10.436;2023-07-20T13:07:09;3.90;;;2.30;;
16963;SDS011;8598;50.508;10.436;2023-07-20T13:09:37;3.00;;;2.20;;
16963;SDS011;8598;50.508;10.436;2023-07-20T13:12:04;3.00;;;2.07;;
16963;SDS011;8598;50.508;10.436;2023-07-20T13:14:31;2.83;;;2.43;;
16963;SDS011;8598;50.508;10.436;2023-07-20T13:16:58;2.60;;;2.40;;
16963;SDS011;8598;50.508;10.436;2023-07-20T13:19:26;2.30;;;2.10;;
16963;SDS011;8598;50.508;10.436;2023-07-20T13:21:53;4.77;;;2.30;;
16963;SDS011;8598;50.508;10.436;2023-07-20T13:24:19;6.60;;;2.20;;
16963;SDS011;8598;50.508;10.436;2023-07-20T13:26:46;2.97;;;1.93;;
16963;SDS011;8598;50.508;10.436;2023-07-20T13:29:13;2.83;;;1.93;;
16963;SDS011;8598;50.508;10.436;2023-07-20T13:31:39;2.90;;;2.50;;
16963;SDS011;8598;50.508;10.436;2023-07-20T13:34:06;2.30;;;1.93;;
16963;SDS011;8598;50.508;10.436;2023-07-20T13:36:34;1.80;;;1.70;;
16963;SDS011;8598;50.508;10.436;2023-07-20T13:39:01;2.63;;;2.10;;
16963;SDS011;8598;50.508;10.436;2023-07-20T13:41:29;5.03;;;2.20;;
16963;SDS011;8598;50.508;10.436;2023-07-20T13:43:57;2.47;;;1.87;;
16963;SDS011;8598;50.508;10.436;2023-07-20T13:46:24;2.63;;;2.30;;
16963;SDS011;8598;50.508;10.436;2023-07-20T13:48:50;2.90;;;2.57;;
16963;SDS011;8598;50.508;10.436;2023-07-20T13:51:17;2.63;;;2.43;;
16963;SDS011;8598;50.508;10.436;2023-07-20T13:53:47;3.07;;;2.20;;
16963;SDS011;8598;50.508;10.436;2023-07-20T13:56:14;3.20;;;2.43;;
16963;SDS011;8598;50.508;10.436;2023-07-20T13:58:41;2.77;;;2.10;;
16963;SDS011;8598;50.508;10.436;2023-07-20T14:01:07;2.83;;;2.60;;
16963;SDS011;8598;50.508;10.436;2023-07-20T14:03:34;3.63;;;2.40;;
16963;SDS011;8598;50.508;10.436;2023-07-20T14:06:02;2.60;;;2.40;;
16963;SDS011;8598;50.508;10.436;2023-07-20T14:08:29;4.17;;;2.50;;
16963;SDS011;8598;50.508;10.436;2023-07-20T14:10:57;3.40;;;2.27;;
16963;SDS011;8598;50.508;10.436;2023-07-20T14:13:24;4.37;;;2.47;;
16963;SDS011;8598;50.508;10.436;2023-07-20T14:15:51;3.87;;;2.17;;
16963;SDS011;8598;50.508;10.436;2023-07-20T14:18:17;3.73;;;2.30;;
16963;SDS011;8598;50.508;10.436;2023-07-20T14:20:44;2.20;;;2.00;;
16963;SDS011;8598;50.508;10.436;2023-07-20T14:23:11;3.10;;;2.17;;
16963;SDS011;8598;50.508;10.436;2023-07-20T14:25:37;5.73;;;2.43;;
16963;SDS011;8598;50.508;10.436;2023-07-20T14:28:07;2.63;;;2.27;;
16963;SDS011;8598;50.508;10.436;2023-07-20T14:30:34;2.90;;;2.50;;
16963;SDS011;8598;50.508;10.436;2023-07-20T14:33:00;4.30;;;2.50;;
16963;SDS011;8598;50.508;10.436;2023-07-20T14:35:27;2.43;;;2.20;;
16963;SDS011;8598;50.508;10.436;2023-07-20T14:37:54;3.60;;;2.00;;
16963;SDS011;8598;50.508;10.436;2023-07-20T14:40:20;2.67;;;2.37;;
16963;SDS011;8598;50.508;10.436;2023-07-20T14:42:47;2.90;;;2.30;;
16963;SDS011;8598;50.508;10.436;2023-07-20T14:45:15;3.90;;;2.47;;
16963;SDS011;8598;50.508;10.436;2023-07-20T14:47:42;3.13;;;2.40;;